createdAt,value
2022-08-02T00:03:38.185Z,16.10
2022-08-02T00:08:41.309Z,16.07
2022-08-02T00:13:44.107Z,16.07
2022-08-02T00:18:48.880Z,15.96
2022-08-02T00:24:28.312Z,15.93
2022-08-02T00:29:14.694Z,15.85
2022-08-02T00:34:28.556Z,15.76
2022-08-02T00:39:35.774Z,15.68
2022-08-02T00:44:38.852Z,15.63
2022-08-02T00:49:43.129Z,15.45
2022-08-02T00:54:46.034Z,15.39
2022-08-02T00:59:49.036Z,14.99
2022-08-02T01:04:53.343Z,14.88
2022-08-02T01:09:56.209Z,14.90
2022-08-02T01:15:01.821Z,14.96
2022-08-02T01:20:18.149Z,14.82
2022-08-02T01:25:54.437Z,14.83
2022-08-02T01:31:02.198Z,14.49
2022-08-02T01:36:08.948Z,14.43
2022-08-02T01:41:17.681Z,14.46
2022-08-02T01:46:22.754Z,14.32
2022-08-02T01:51:42.131Z,14.35
2022-08-02T01:56:46.563Z,14.44
2022-08-02T02:01:53.357Z,14.48
2022-08-02T02:06:57.745Z,14.41
2022-08-02T02:12:11.001Z,14.48
2022-08-02T02:18:11.579Z,14.43
2022-08-02T02:22:43.163Z,14.41
2022-08-02T02:27:52.977Z,14.49
2022-08-02T02:33:00.951Z,14.48
2022-08-02T02:38:07.528Z,14.40
2022-08-02T02:43:12.592Z,14.39
2022-08-02T02:48:18.441Z,14.37
2022-08-02T02:53:23.317Z,14.32
2022-08-02T02:58:28.698Z,14.33
2022-08-02T03:03:34.871Z,14.33
2022-08-02T03:08:37.731Z,14.23
2022-08-02T03:13:41.761Z,14.19
2022-08-02T03:18:45.929Z,14.26
2022-08-02T03:23:49.341Z,14.24
2022-08-02T03:28:52.141Z,14.19
2022-08-02T03:33:57.664Z,14.06
2022-08-02T03:39:01.468Z,14.02
2022-08-02T03:44:06.630Z,14.04
2022-08-02T03:49:12.949Z,14.04
2022-08-02T03:54:18.301Z,13.99
2022-08-02T03:59:21.221Z,13.96
2022-08-02T04:04:25.587Z,13.83
2022-08-02T04:09:28.453Z,13.94
2022-08-02T04:14:31.771Z,14.06
2022-08-02T04:19:46.929Z,14.14
2022-08-02T04:24:53.035Z,14.12
2022-08-02T04:29:59.713Z,14.15
2022-08-02T04:35:20.418Z,14.18
2022-08-02T04:40:23.646Z,14.15
2022-08-02T04:45:27.942Z,14.10
2022-08-02T04:50:32.264Z,14.11
2022-08-02T04:55:35.138Z,14.09
2022-08-02T05:00:38.127Z,14.14
2022-08-02T05:05:42.456Z,14.15
2022-08-02T05:10:45.280Z,14.36
2022-08-02T05:15:49.764Z,14.52
2022-08-02T05:20:58.062Z,14.63
2022-08-02T05:26:01.145Z,14.66
2022-08-02T05:31:04.046Z,14.79
2022-08-02T05:36:09.422Z,14.89
2022-08-02T05:41:12.444Z,15.14
2022-08-02T05:46:15.366Z,15.44
2022-08-02T05:51:29.811Z,15.69
2022-08-02T05:56:39.812Z,15.88
2022-08-02T06:01:44.920Z,15.85
2022-08-02T06:06:53.935Z,15.76
2022-08-02T06:12:02.847Z,16.08
2022-08-02T06:17:06.318Z,16.21
2022-08-02T06:22:35.488Z,16.35
2022-08-02T06:27:41.348Z,16.81
2022-08-02T06:32:46.441Z,17.11
2022-08-02T06:37:58.673Z,17.41
2022-08-02T06:43:12.024Z,17.89
2022-08-02T06:48:15.058Z,18.16
2022-08-02T06:53:19.329Z,18.38
2022-08-02T06:58:22.182Z,18.51
2022-08-02T07:03:25.537Z,18.58
2022-08-02T07:08:32.390Z,18.75
2022-08-02T07:13:39.535Z,18.82
2022-08-02T07:18:42.785Z,19.17
2022-08-02T07:23:47.001Z,19.14
2022-08-02T07:28:49.875Z,19.76
2022-08-02T07:33:52.847Z,20.05
2022-08-02T07:38:57.876Z,20.54
2022-08-02T07:44:00.714Z,21.11
2022-08-02T07:49:04.702Z,21.87
2022-08-02T07:54:08.918Z,22.55
2022-08-02T07:59:12.953Z,22.30
2022-08-02T08:04:15.937Z,21.95
2022-08-02T08:09:20.892Z,22.24
2022-08-02T08:14:23.680Z,22.00
2022-08-02T08:19:51.731Z,22.49
2022-08-02T08:30:28.401Z,21.74
2022-08-02T08:35:31.282Z,21.76
2022-08-02T08:40:34.134Z,22.51
2022-08-02T08:45:38.747Z,22.53
2022-08-02T08:50:48.898Z,22.18
2022-08-02T08:55:56.332Z,22.90
2022-08-02T09:01:01.190Z,23.56
2022-08-02T09:06:05.097Z,23.64
2022-08-02T09:11:14.602Z,24.42
2022-08-02T09:16:29.185Z,24.58
2022-08-02T09:21:37.164Z,24.92
2022-08-02T09:26:40.048Z,25.50
2022-08-02T09:31:49.897Z,24.13
2022-08-02T09:36:54.422Z,24.69
2022-08-02T09:42:11.236Z,25.09
2022-08-02T09:47:18.660Z,24.76
2022-08-02T09:52:43.238Z,25.89
2022-08-02T09:57:51.165Z,25.27
2022-08-02T10:03:09.143Z,25.43
2022-08-02T10:08:16.344Z,26.04
2022-08-02T10:13:20.181Z,26.40
2022-08-02T10:18:38.305Z,26.20
2022-08-02T10:23:45.090Z,26.46
2022-08-02T10:28:50.497Z,26.38
2022-08-02T10:33:56.853Z,26.59
2022-08-02T10:39:02.005Z,26.52
2022-08-02T10:44:05.198Z,26.95
2022-08-02T10:49:38.116Z,27.43
2022-08-02T10:54:40.188Z,26.92
2022-08-02T10:59:43.010Z,26.70
2022-08-02T11:05:06.850Z,26.86
2022-08-02T11:10:31.687Z,26.89
2022-08-02T11:15:49.988Z,27.30
2022-08-02T11:21:23.121Z,27.99
2022-08-02T11:26:47.243Z,27.08
2022-08-02T11:31:50.049Z,27.54
2022-08-02T11:36:54.532Z,27.80
2022-08-02T11:41:59.380Z,27.49
2022-08-02T11:47:03.433Z,27.84
2022-08-02T11:52:11.165Z,27.17
2022-08-02T11:57:19.795Z,28.28
2022-08-02T12:02:24.823Z,28.23
2022-08-02T12:07:34.366Z,28.77
2022-08-02T12:12:49.239Z,28.88
2022-08-02T12:18:09.336Z,29.34
2022-08-02T12:23:13.546Z,29.11
2022-08-02T12:28:18.656Z,29.43
2022-08-02T12:33:22.339Z,27.43
2022-08-02T12:38:26.493Z,27.06
2022-08-02T12:43:29.262Z,28.96
2022-08-02T12:48:37.544Z,28.80
2022-08-02T12:53:43.746Z,30.47
2022-08-02T12:58:50.592Z,29.81
2022-08-02T13:04:09.607Z,28.76
2022-08-02T13:09:18.249Z,29.80
2022-08-02T13:14:21.210Z,29.42
2022-08-02T13:19:24.110Z,29.75
2022-08-02T13:24:38.135Z,30.09
2022-08-02T13:29:43.333Z,29.17
2022-08-02T13:34:46.373Z,29.01
2022-08-02T13:40:18.613Z,29.02
2022-08-02T13:45:14.424Z,28.51
2022-08-02T13:50:18.166Z,29.38
2022-08-02T13:55:22.362Z,29.10
2022-08-02T14:00:35.347Z,28.84
2022-08-02T14:05:47.646Z,29.66
2022-08-02T14:10:53.362Z,30.23
2022-08-02T14:15:56.427Z,29.89
2022-08-02T14:20:59.342Z,29.98
2022-08-02T14:26:05.440Z,30.34
2022-08-02T14:31:08.278Z,29.98
2022-08-02T14:36:14.620Z,29.97
2022-08-02T14:41:18.802Z,30.16
2022-08-02T14:46:21.632Z,30.27
2022-08-02T14:51:24.456Z,29.10
2022-08-02T14:56:28.791Z,29.31
2022-08-02T15:01:32.435Z,28.92
2022-08-02T15:06:35.315Z,29.14
2022-08-02T15:11:48.316Z,29.09
2022-08-02T15:16:59.223Z,30.51
2022-08-02T15:22:08.967Z,30.69
2022-08-02T15:27:18.017Z,30.24
2022-08-02T15:32:21.237Z,30.12
2022-08-02T15:37:24.034Z,30.31
2022-08-02T15:42:30.685Z,30.29
2022-08-02T15:47:33.828Z,29.95
2022-08-02T15:52:37.539Z,29.66
2022-08-02T15:57:41.737Z,29.07
2022-08-02T16:02:44.505Z,30.05
2022-08-02T16:14:38.344Z,30.22
2022-08-02T16:19:48.777Z,29.47
2022-08-02T16:24:52.698Z,29.69
2022-08-02T16:29:56.913Z,30.10
2022-08-02T16:35:07.602Z,30.36
2022-08-02T16:40:13.206Z,30.80
2022-08-02T16:45:17.356Z,29.72
2022-08-02T16:50:28.335Z,29.05
2022-08-02T16:55:31.626Z,29.07
2022-08-02T17:00:36.230Z,29.82
2022-08-02T17:05:57.009Z,29.24
2022-08-02T17:11:03.293Z,28.54
2022-08-02T17:16:20.270Z,27.27
2022-08-02T17:21:28.977Z,27.75
2022-08-02T17:26:31.857Z,28.27
2022-08-02T17:31:42.967Z,28.55
2022-08-02T17:36:49.774Z,33.21
2022-08-02T17:41:53.187Z,31.38
2022-08-02T17:46:57.422Z,30.89
2022-08-02T17:52:15.826Z,31.24
2022-08-02T17:57:24.554Z,30.52
2022-08-02T18:02:50.467Z,30.14
2022-08-02T18:08:01.074Z,30.40
2022-08-02T18:13:05.274Z,28.93
2022-08-02T18:18:09.599Z,27.83
2022-08-02T18:23:13.874Z,27.39
2022-08-02T18:28:17.085Z,27.13
2022-08-02T18:33:57.103Z,27.11
2022-08-02T18:38:45.700Z,26.64
2022-08-02T18:43:49.355Z,26.66
2022-08-02T18:48:54.287Z,26.62
2022-08-02T18:53:58.886Z,26.55
2022-08-02T18:59:03.133Z,26.36
2022-08-02T19:04:08.714Z,26.25
2022-08-02T19:09:13.109Z,26.04
2022-08-02T19:14:24.123Z,25.78
2022-08-02T19:19:32.170Z,25.68
2022-08-02T19:24:37.019Z,25.49
2022-08-02T19:40:28.981Z,24.92
2022-08-02T19:45:50.340Z,24.92
2022-08-02T19:50:59.176Z,24.90
2022-08-02T19:56:05.006Z,24.84
2022-08-02T20:01:09.498Z,24.78
2022-08-02T20:11:43.617Z,24.70
2022-08-02T20:16:46.493Z,24.61
2022-08-02T20:21:59.460Z,24.59
2022-08-02T20:27:03.497Z,24.51
2022-08-02T20:32:07.735Z,24.40
2022-08-02T20:38:01.179Z,24.31
2022-08-02T20:42:35.376Z,24.25
2022-08-02T20:47:39.087Z,24.22
2022-08-02T20:52:43.731Z,24.07
2022-08-02T20:58:00.061Z,23.93
2022-08-02T21:03:05.857Z,23.89
2022-08-02T21:13:46.614Z,23.74
2022-08-02T21:18:51.299Z,23.63
2022-08-02T21:23:55.529Z,23.52
2022-08-02T21:28:58.378Z,23.39
2022-08-02T21:34:19.228Z,23.28
2022-08-02T21:39:27.166Z,23.11
2022-08-02T21:44:30.164Z,22.99
2022-08-02T21:50:09.670Z,22.95
2022-08-02T21:54:57.408Z,22.89
2022-08-02T22:00:01.265Z,22.74
2022-08-02T22:05:04.174Z,22.70
2022-08-02T22:10:10.083Z,22.67
2022-08-02T22:15:13.320Z,22.61
2022-08-02T22:20:18.273Z,22.55
2022-08-02T22:25:31.268Z,22.38
2022-08-02T22:30:40.614Z,22.24
2022-08-02T22:35:43.908Z,22.06
2022-08-02T22:40:49.390Z,21.84
2022-08-02T22:45:52.218Z,21.76
2022-08-02T22:50:55.086Z,21.74
2022-08-02T22:55:59.637Z,21.77
2022-08-02T22:58:48.175Z,25.14
2022-08-02T22:58:52.376Z,24.96
2022-08-02T22:58:54.482Z,24.78
2022-08-02T22:59:01.821Z,23.81
2022-08-02T23:01:02.514Z,21.70
2022-08-02T23:06:06.283Z,21.74
2022-08-02T23:11:10.534Z,21.72
2022-08-02T23:16:31.133Z,21.69
2022-08-02T23:22:01.050Z,21.61
2022-08-02T23:26:58.754Z,21.38
2022-08-02T23:32:01.586Z,21.20
2022-08-02T23:37:04.739Z,21.15
2022-08-02T23:42:09.479Z,21.17
2022-08-02T23:47:12.538Z,21.09
2022-08-02T23:52:15.679Z,20.93
2022-08-02T23:57:21.616Z,20.88
